Weather at Ouallam Airport

Public forecast

Using degrees Celsius for public forecast. Weather courtesy of forecast.io.

Closest aviation weather report (METAR) to Ouallam Airport

Closest report is Diori Hamani International Airport, 51.5 nm (95.3 km) S.

2023/09/29 20:00 (retrieved 33 minutes ago)

DRRN 292000Z 17006KT CAVOK 32/16 Q1011 NOSIG

Closest aviation forecast (TAF) to Ouallam Airport

Closest forecast is Diori Hamani International Airport, 51.5 nm (95.3 km) S.

2023/09/29 18:46 (retrieved 2 hours ago)

TAF DRRN 291700Z 2918/3024 18008KT 8000 FEW033 PROB30 TEMPO 3004/3010 12015G30KT 2000 BLDU TSRA SCT030 FEW033CB